GGCF weather

Cufar Airport
Cufar, Tombali Region, Guinea-Bissau

Public forecast

Using degrees Celsius for public forecast. Weather courtesy of forecast.io.

Closest aviation weather report (METAR) to Cufar Airport

Report is more than 6 hours old.

Closest report is Osvaldo Vieira International Airport, 45.9 nm (84.9 km) NW. Retrieved 2020/04/08 17:00 UTC (18 hours ago):

GGOV 081700Z 23008KT 180V280 CAVOK 35/17 Q1007 NOSIG

Closest aviation forecast (TAF) to Cufar Airport

Forecast is more than 12 hours old.

Closest forecast is Osvaldo Vieira International Airport, 45.9 nm (84.9 km) NW. Retrieved 2020/04/08 18:00 UTC (17 hours ago):

TAF GGOV 081700Z 0818/0918 22007KT CAVOK